sensor_id;sensor_type;location;lat;lon;timestamp;pressure;altitude;pressure_sealevel;temperature;humidity
40850;BME280;26571;41.610;25.380;2023-04-25T00:01:58;97690.84;;;11.99;68.59
40850;BME280;26571;41.610;25.380;2023-04-25T00:04:25;97675.59;;;11.95;68.13
40850;BME280;26571;41.610;25.380;2023-04-25T00:06:50;97672.72;;;11.89;67.03
40850;BME280;26571;41.610;25.380;2023-04-25T00:09:17;97636.38;;;11.63;67.75
40850;BME280;26571;41.610;25.380;2023-04-25T00:11:42;97667.31;;;11.76;67.98
40850;BME280;26571;41.610;25.380;2023-04-25T00:14:08;97663.28;;;11.80;68.38
40850;BME280;26571;41.610;25.380;2023-04-25T00:16:35;97661.84;;;11.78;68.26
40850;BME280;26571;41.610;25.380;2023-04-25T00:19:01;97704.75;;;11.86;68.82
40850;BME280;26571;41.610;25.380;2023-04-25T00:21:27;97620.44;;;11.72;68.32
40850;BME280;26571;41.610;25.380;2023-04-25T00:23:53;97652.88;;;11.94;68.37
40850;BME280;26571;41.610;25.380;2023-04-25T00:26:20;97652.88;;;11.94;67.47
40850;BME280;26571;41.610;25.380;2023-04-25T00:28:46;97647.59;;;11.94;67.68
40850;BME280;26571;41.610;25.380;2023-04-25T00:31:12;97655.75;;;11.99;67.26
40850;BME280;26571;41.610;25.380;2023-04-25T00:33:38;97654.09;;;11.98;67.06
40850;BME280;26571;41.610;25.380;2023-04-25T00:36:03;97641.31;;;11.95;67.20
40850;BME280;26571;41.610;25.380;2023-04-25T00:38:29;97650.84;;;11.96;67.86
40850;BME280;26571;41.610;25.380;2023-04-25T00:40:54;97639.50;;;12.02;67.63
40850;BME280;26571;41.610;25.380;2023-04-25T00:43:21;97642.44;;;12.13;67.42
40850;BME280;26571;41.610;25.380;2023-04-25T00:45:47;97628.63;;;12.18;67.21
40850;BME280;26571;41.610;25.380;2023-04-25T00:48:14;97636.75;;;12.23;67.27
40850;BME280;26571;41.610;25.380;2023-04-25T00:50:39;97624.78;;;12.21;67.67
40850;BME280;26571;41.610;25.380;2023-04-25T00:53:05;97627.00;;;12.17;68.58
40850;BME280;26571;41.610;25.380;2023-04-25T00:55:31;97624.72;;;12.07;69.46
40850;BME280;26571;41.610;25.380;2023-04-25T00:57:57;97625.31;;;12.03;70.01
40850;BME280;26571;41.610;25.380;2023-04-25T01:00:23;97632.81;;;11.99;70.39
40850;BME280;26571;41.610;25.380;2023-04-25T01:02:49;97632.84;;;12.06;70.57
40850;BME280;26571;41.610;25.380;2023-04-25T01:05:15;97577.06;;;11.74;70.90
40850;BME280;26571;41.610;25.380;2023-04-25T01:07:41;97626.59;;;12.13;70.83
40850;BME280;26571;41.610;25.380;2023-04-25T01:10:07;97599.34;;;12.06;70.75
40850;BME280;26571;41.610;25.380;2023-04-25T01:12:33;97622.59;;;12.24;69.52
40850;BME280;26571;41.610;25.380;2023-04-25T01:14:58;97618.06;;;12.18;70.36
40850;BME280;26571;41.610;25.380;2023-04-25T01:17:24;97614.97;;;12.08;71.86
40850;BME280;26571;41.610;25.380;2023-04-25T01:19:49;97604.38;;;11.95;72.80
40850;BME280;26571;41.610;25.380;2023-04-25T01:22:16;97607.81;;;11.88;73.88
40850;BME280;26571;41.610;25.380;2023-04-25T01:24:42;97569.06;;;11.61;74.35
40850;BME280;26571;41.610;25.380;2023-04-25T01:27:08;97602.53;;;11.88;74.67
40850;BME280;26571;41.610;25.380;2023-04-25T01:29:36;97612.44;;;11.86;74.92
40850;BME280;26571;41.610;25.380;2023-04-25T01:32:02;97598.47;;;11.93;75.16
40850;BME280;26571;41.610;25.380;2023-04-25T01:34:28;97590.78;;;11.98;74.71
40850;BME280;26571;41.610;25.380;2023-04-25T01:36:54;97590.84;;;12.04;74.81
40850;BME280;26571;41.610;25.380;2023-04-25T01:39:20;97587.63;;;12.09;74.21
40850;BME280;26571;41.610;25.380;2023-04-25T01:41:46;97589.22;;;12.10;74.16
40850;BME280;26571;41.610;25.380;2023-04-25T01:44:13;97583.97;;;12.10;74.94
40850;BME280;26571;41.610;25.380;2023-04-25T01:46:38;97585.19;;;12.14;74.54
40850;BME280;26571;41.610;25.380;2023-04-25T01:49:04;97591.47;;;12.13;74.50
40850;BME280;26571;41.610;25.380;2023-04-25T01:51:30;97582.34;;;12.15;74.71
40850;BME280;26571;41.610;25.380;2023-04-25T01:53:56;97585.00;;;12.22;74.71
40850;BME280;26571;41.610;25.380;2023-04-25T01:56:22;97584.63;;;12.25;75.54
40850;BME280;26571;41.610;25.380;2023-04-25T01:58:48;97585.88;;;12.29;76.16
40850;BME280;26571;41.610;25.380;2023-04-25T02:01:13;97581.19;;;12.31;75.99
40850;BME280;26571;41.610;25.380;2023-04-25T02:03:39;97576.31;;;12.28;76.22
40850;BME280;26571;41.610;25.380;2023-04-25T02:06:05;97573.91;;;12.33;76.68
40850;BME280;26571;41.610;25.380;2023-04-25T02:08:30;97577.16;;;12.35;76.44
40850;BME280;26571;41.610;25.380;2023-04-25T02:10:56;97564.97;;;12.41;76.46
40850;BME280;26571;41.610;25.380;2023-04-25T02:13:22;97558.88;;;12.40;76.39
40850;BME280;26571;41.610;25.380;2023-04-25T02:15:47;97563.38;;;12.47;76.32
40850;BME280;26571;41.610;25.380;2023-04-25T02:18:12;97522.69;;;12.21;75.78
40850;BME280;26571;41.610;25.380;2023-04-25T02:20:38;97554.63;;;12.53;74.30
40850;BME280;26571;41.610;25.380;2023-04-25T02:23:03;97546.72;;;12.39;74.95
40850;BME280;26571;41.610;25.380;2023-04-25T02:25:29;97499.00;;;11.80;76.26
40850;BME280;26571;41.610;25.380;2023-04-25T02:27:54;97541.25;;;11.86;77.44
40850;BME280;26571;41.610;25.380;2023-04-25T02:30:20;97533.91;;;11.82;78.25
40850;BME280;26571;41.610;25.380;2023-04-25T02:32:45;97526.44;;;11.85;79.18
40850;BME280;26571;41.610;25.380;2023-04-25T02:35:11;97524.41;;;11.87;80.05
40850;BME280;26571;41.610;25.380;2023-04-25T02:37:38;97495.31;;;11.74;80.03
40850;BME280;26571;41.610;25.380;2023-04-25T02:40:04;97526.72;;;12.04;79.54
40850;BME280;26571;41.610;25.380;2023-04-25T02:42:30;97527.09;;;12.01;80.41
40850;BME280;26571;41.610;25.380;2023-04-25T02:44:55;97528.34;;;12.05;81.24
40850;BME280;26571;41.610;25.380;2023-04-25T02:47:21;97522.63;;;12.01;81.48
40850;BME280;26571;41.610;25.380;2023-04-25T02:49:46;97533.19;;;12.01;82.18
40850;BME280;26571;41.610;25.380;2023-04-25T02:52:12;97525.47;;;12.00;82.32
40850;BME280;26571;41.610;25.380;2023-04-25T02:54:39;97518.00;;;12.10;82.35
40850;BME280;26571;41.610;25.380;2023-04-25T02:57:05;97516.34;;;12.02;82.76
40850;BME280;26571;41.610;25.380;2023-04-25T02:59:30;97500.72;;;12.07;82.63
40850;BME280;26571;41.610;25.380;2023-04-25T03:01:56;97509.66;;;12.13;82.38
40850;BME280;26571;41.610;25.380;2023-04-25T03:04:21;97512.13;;;12.14;81.78
40850;BME280;26571;41.610;25.380;2023-04-25T03:06:49;97506.81;;;12.08;81.98
40850;BME280;26571;41.610;25.380;2023-04-25T03:09:15;97513.69;;;12.02;83.11
40850;BME280;26571;41.610;25.380;2023-04-25T03:11:40;97510.84;;;11.97;83.15
40850;BME280;26571;41.610;25.380;2023-04-25T03:14:06;97507.19;;;11.92;83.53
40850;BME280;26571;41.610;25.380;2023-04-25T03:16:31;97519.41;;;11.99;83.75
40850;BME280;26571;41.610;25.380;2023-04-25T03:18:57;97521.00;;;12.00;84.33
40850;BME280;26571;41.610;25.380;2023-04-25T03:21:22;97513.69;;;11.96;84.37
40850;BME280;26571;41.610;25.380;2023-04-25T03:23:48;97518.16;;;11.95;82.49
40850;BME280;26571;41.610;25.380;2023-04-25T03:26:13;97520.13;;;11.86;83.72
40850;BME280;26571;41.610;25.380;2023-04-25T03:28:39;97516.47;;;11.87;84.93
40850;BME280;26571;41.610;25.380;2023-04-25T03:31:05;97517.50;;;11.86;85.40
40850;BME280;26571;41.610;25.380;2023-04-25T03:33:30;97514.66;;;11.88;85.45
40850;BME280;26571;41.610;25.380;2023-04-25T03:35:56;97518.75;;;11.90;85.25
40850;BME280;26571;41.610;25.380;2023-04-25T03:38:21;97515.72;;;11.94;84.43
40850;BME280;26571;41.610;25.380;2023-04-25T03:40:47;97515.44;;;11.82;85.04
40850;BME280;26571;41.610;25.380;2023-04-25T03:43:12;97514.31;;;11.63;85.79
40850;BME280;26571;41.610;25.380;2023-04-25T03:45:37;97514.41;;;11.42;86.89
40850;BME280;26571;41.610;25.380;2023-04-25T03:48:03;97506.03;;;11.31;87.68
40850;BME280;26571;41.610;25.380;2023-04-25T03:50:28;97525.88;;;11.27;88.60
40850;BME280;26571;41.610;25.380;2023-04-25T03:52:54;97516.34;;;11.26;88.83
40850;BME280;26571;41.610;25.380;2023-04-25T03:55:19;97518.50;;;11.16;89.57
40850;BME280;26571;41.610;25.380;2023-04-25T03:57:45;97518.88;;;11.13;89.84
40850;BME280;26571;41.610;25.380;2023-04-25T04:00:11;97528.03;;;11.17;89.67
40850;BME280;26571;41.610;25.380;2023-04-25T04:02:36;97527.50;;;11.28;89.33
40850;BME280;26571;41.610;25.380;2023-04-25T04:05:03;97532.03;;;11.34;89.60
40850;BME280;26571;41.610;25.380;2023-04-25T04:07:29;97527.34;;;11.36;89.28
40850;BME280;26571;41.610;25.380;2023-04-25T04:09:54;97515.34;;;11.27;89.58
40850;BME280;26571;41.610;25.380;2023-04-25T04:12:20;97533.63;;;11.35;89.62
40850;BME280;26571;41.610;25.380;2023-04-25T04:14:45;97521.47;;;11.34;90.07
40850;BME280;26571;41.610;25.380;2023-04-25T04:17:10;97530.78;;;11.30;90.20
40850;BME280;26571;41.610;25.380;2023-04-25T04:19:36;97533.41;;;11.30;90.70
40850;BME280;26571;41.610;25.380;2023-04-25T04:22:02;97531.53;;;11.24;91.07
40850;BME280;26571;41.610;25.380;2023-04-25T04:24:27;97532.13;;;11.20;90.66
40850;BME280;26571;41.610;25.380;2023-04-25T04:26:52;97523.66;;;11.24;91.33
40850;BME280;26571;41.610;25.380;2023-04-25T04:29:18;97536.03;;;11.30;90.96
40850;BME280;26571;41.610;25.380;2023-04-25T04:31:50;97537.34;;;11.48;90.75
40850;BME280;26571;41.610;25.380;2023-04-25T04:34:18;97536.97;;;12.40;86.19
40850;BME280;26571;41.610;25.380;2023-04-25T04:36:47;97547.09;;;13.76;78.66
40850;BME280;26571;41.610;25.380;2023-04-25T04:39:13;97548.41;;;15.13;70.37
40850;BME280;26571;41.610;25.380;2023-04-25T04:41:39;97549.13;;;16.67;63.47
40850;BME280;26571;41.610;25.380;2023-04-25T04:44:05;97556.53;;;18.00;57.13
40850;BME280;26571;41.610;25.380;2023-04-25T04:46:32;97545.50;;;19.11;52.60
40850;BME280;26571;41.610;25.380;2023-04-25T04:49:04;97540.97;;;20.50;49.12
40850;BME280;26571;41.610;25.380;2023-04-25T04:51:30;97498.22;;;20.87;45.94
40850;BME280;26571;41.610;25.380;2023-04-25T04:53:56;97540.91;;;21.36;44.70
40850;BME280;26571;41.610;25.380;2023-04-25T04:56:23;97531.56;;;21.06;44.23
40850;BME280;26571;41.610;25.380;2023-04-25T04:58:50;97530.91;;;20.89;45.00
40850;BME280;26571;41.610;25.380;2023-04-25T05:01:15;97535.41;;;21.15;44.74
40850;BME280;26571;41.610;25.380;2023-04-25T05:03:41;97518.69;;;21.03;44.24
40850;BME280;26571;41.610;25.380;2023-04-25T05:06:06;97531.91;;;20.83;44.97
40850;BME280;26571;41.610;25.380;2023-04-25T05:08:32;97535.66;;;21.51;44.12
40850;BME280;26571;41.610;25.380;2023-04-25T05:10:57;97522.84;;;20.84;44.90
40850;BME280;26571;41.610;25.380;2023-04-25T05:13:22;97527.69;;;21.61;44.17
40850;BME280;26571;41.610;25.380;2023-04-25T05:15:48;97524.94;;;20.82;45.03
40850;BME280;26571;41.610;25.380;2023-04-25T05:18:13;97487.66;;;21.02;43.83
40850;BME280;26571;41.610;25.380;2023-04-25T05:20:39;97529.22;;;21.47;43.46
40850;BME280;26571;41.610;25.380;2023-04-25T05:23:04;97525.56;;;21.26;44.13
40850;BME280;26571;41.610;25.380;2023-04-25T05:25:29;97517.72;;;19.46;47.84
40850;BME280;26571;41.610;25.380;2023-04-25T05:27:55;97515.31;;;18.20;51.95
40850;BME280;26571;41.610;25.380;2023-04-25T05:30:21;97530.69;;;19.03;51.07
40850;BME280;26571;41.610;25.380;2023-04-25T05:32:47;97502.88;;;20.16;47.87
40850;BME280;26571;41.610;25.380;2023-04-25T05:35:13;97510.75;;;19.06;50.70
40850;BME280;26571;41.610;25.380;2023-04-25T05:37:38;97511.22;;;18.57;53.05
40850;BME280;26571;41.610;25.380;2023-04-25T05:40:04;97510.56;;;17.93;55.27
40850;BME280;26571;41.610;25.380;2023-04-25T05:42:32;97507.34;;;17.68;57.85
40850;BME280;26571;41.610;25.380;2023-04-25T05:44:57;97506.91;;;17.24;59.96
40850;BME280;26571;41.610;25.380;2023-04-25T05:47:23;97499.88;;;17.06;59.92
40850;BME280;26571;41.610;25.380;2023-04-25T05:49:48;97494.63;;;16.46;62.32
40850;BME280;26571;41.610;25.380;2023-04-25T05:52:13;97504.25;;;16.17;63.71
40850;BME280;26571;41.610;25.380;2023-04-25T05:54:40;97504.72;;;15.95;66.21
40850;BME280;26571;41.610;25.380;2023-04-25T05:57:06;97476.28;;;15.47;67.44
40850;BME280;26571;41.610;25.380;2023-04-25T05:59:31;97462.84;;;15.24;68.38
40850;BME280;26571;41.610;25.380;2023-04-25T06:01:57;97511.25;;;15.56;69.24
40850;BME280;26571;41.610;25.380;2023-04-25T06:04:22;97503.22;;;15.44;68.96
40850;BME280;26571;41.610;25.380;2023-04-25T06:06:48;97502.78;;;15.47;70.08
40850;BME280;26571;41.610;25.380;2023-04-25T06:09:14;97459.47;;;15.17;70.25
40850;BME280;26571;41.610;25.380;2023-04-25T06:11:39;97506.31;;;15.66;69.89
40850;BME280;26571;41.610;25.380;2023-04-25T06:14:05;97479.69;;;15.73;68.90
40850;BME280;26571;41.610;25.380;2023-04-25T06:16:31;97498.16;;;15.98;68.39
40850;BME280;26571;41.610;25.380;2023-04-25T06:18:56;97497.69;;;16.61;67.56
40850;BME280;26571;41.610;25.380;2023-04-25T06:21:22;97501.78;;;17.69;63.04
40850;BME280;26571;41.610;25.380;2023-04-25T06:23:47;97493.63;;;18.56;58.77
40850;BME280;26571;41.610;25.380;2023-04-25T06:26:12;97481.22;;;19.13;57.14
40850;BME280;26571;41.610;25.380;2023-04-25T06:28:38;97490.09;;;19.35;53.73
40850;BME280;26571;41.610;25.380;2023-04-25T06:31:03;97488.97;;;19.14;55.29
40850;BME280;26571;41.610;25.380;2023-04-25T06:33:29;97487.09;;;19.31;54.22
40850;BME280;26571;41.610;25.380;2023-04-25T06:35:54;97479.03;;;19.48;52.86
40850;BME280;26571;41.610;25.380;2023-04-25T06:38:19;97480.22;;;19.57;52.93
40850;BME280;26571;41.610;25.380;2023-04-25T06:40:45;97473.75;;;19.70;52.79
40850;BME280;26571;41.610;25.380;2023-04-25T06:43:10;97479.34;;;19.69;51.26
40850;BME280;26571;41.610;25.380;2023-04-25T06:45:36;97473.25;;;19.95;50.78
40850;BME280;26571;41.610;25.380;2023-04-25T06:48:01;97472.50;;;19.78;50.22
40850;BME280;26571;41.610;25.380;2023-04-25T06:50:27;97472.25;;;20.01;49.77
40850;BME280;26571;41.610;25.380;2023-04-25T06:52:52;97477.31;;;20.25;49.91
40850;BME280;26571;41.610;25.380;2023-04-25T06:55:18;97464.81;;;20.57;49.40
40850;BME280;26571;41.610;25.380;2023-04-25T06:57:43;97467.00;;;20.60;48.64
40850;BME280;26571;41.610;25.380;2023-04-25T07:00:09;97470.78;;;20.64;47.43
40850;BME280;26571;41.610;25.380;2023-04-25T07:02:35;97466.31;;;20.75;48.02
40850;BME280;26571;41.610;25.380;2023-04-25T07:05:01;97466.59;;;20.74;48.53
40850;BME280;26571;41.610;25.380;2023-04-25T07:07:29;97457.94;;;20.67;48.91
40850;BME280;26571;41.610;25.380;2023-04-25T07:09:55;97463.59;;;20.43;48.76
40850;BME280;26571;41.610;25.380;2023-04-25T07:12:21;97449.13;;;20.39;49.31
40850;BME280;26571;41.610;25.380;2023-04-25T07:14:46;97434.28;;;20.53;48.51
40850;BME280;26571;41.610;25.380;2023-04-25T07:17:11;97440.78;;;20.62;48.70
40850;BME280;26571;41.610;25.380;2023-04-25T07:19:37;97449.50;;;20.80;47.39
40850;BME280;26571;41.610;25.380;2023-04-25T07:22:05;97462.31;;;20.78;46.71
40850;BME280;26571;41.610;25.380;2023-04-25T07:24:30;97458.56;;;20.47;47.27
40850;BME280;26571;41.610;25.380;2023-04-25T07:26:56;97446.75;;;20.43;47.57
40850;BME280;26571;41.610;25.380;2023-04-25T07:29:21;97447.25;;;20.67;46.87
40850;BME280;26571;41.610;25.380;2023-04-25T07:31:47;97433.59;;;21.00;46.26
40850;BME280;26571;41.610;25.380;2023-04-25T07:34:13;97439.44;;;20.97;46.94
40850;BME280;26571;41.610;25.380;2023-04-25T07:36:38;97430.72;;;21.12;47.12
40850;BME280;26571;41.610;25.380;2023-04-25T07:39:03;97440.28;;;21.40;44.49
40850;BME280;26571;41.610;25.380;2023-04-25T07:41:29;97440.03;;;21.47;45.19
40850;BME280;26571;41.610;25.380;2023-04-25T07:43:54;97440.16;;;21.77;45.40
40850;BME280;26571;41.610;25.380;2023-04-25T07:46:20;97436.66;;;21.72;45.99
40850;BME280;26571;41.610;25.380;2023-04-25T07:48:45;97442.53;;;21.58;43.68
40850;BME280;26571;41.610;25.380;2023-04-25T07:51:10;97437.25;;;21.79;44.87
40850;BME280;26571;41.610;25.380;2023-04-25T07:53:36;97434.16;;;21.50;44.24
40850;BME280;26571;41.610;25.380;2023-04-25T07:56:02;97432.34;;;21.65;44.75
40850;BME280;26571;41.610;25.380;2023-04-25T07:58:28;97426.59;;;22.04;43.16
40850;BME280;26571;41.610;25.380;2023-04-25T08:00:53;97433.53;;;21.90;43.28
40850;BME280;26571;41.610;25.380;2023-04-25T08:03:19;97432.31;;;21.55;43.77
40850;BME280;26571;41.610;25.380;2023-04-25T08:05:45;97430.69;;;21.07;43.86
40850;BME280;26571;41.610;25.380;2023-04-25T08:08:11;97424.88;;;21.20;44.45
40850;BME280;26571;41.610;25.380;2023-04-25T08:10:36;97430.06;;;21.37;44.47
40850;BME280;26571;41.610;25.380;2023-04-25T08:13:01;97420.84;;;21.17;44.95
40850;BME280;26571;41.610;25.380;2023-04-25T08:15:27;97421.81;;;21.01;45.01
40850;BME280;26571;41.610;25.380;2023-04-25T08:17:53;97430.00;;;21.27;44.28
40850;BME280;26571;41.610;25.380;2023-04-25T08:20:18;97424.78;;;21.47;44.41
40850;BME280;26571;41.610;25.380;2023-04-25T08:22:43;97424.84;;;21.67;43.95
40850;BME280;26571;41.610;25.380;2023-04-25T08:25:09;97379.47;;;21.35;43.59
40850;BME280;26571;41.610;25.380;2023-04-25T08:27:35;97425.88;;;21.51;44.94
40850;BME280;26571;41.610;25.380;2023-04-25T08:30:02;97399.34;;;21.02;45.20
40850;BME280;26571;41.610;25.380;2023-04-25T08:32:28;97425.25;;;21.34;46.29
40850;BME280;26571;41.610;25.380;2023-04-25T08:34:53;97422.72;;;21.64;43.87
40850;BME280;26571;41.610;25.380;2023-04-25T08:37:20;97392.44;;;21.64;42.52
40850;BME280;26571;41.610;25.380;2023-04-25T08:39:46;97412.91;;;22.01;43.36
40850;BME280;26571;41.610;25.380;2023-04-25T08:42:14;97412.66;;;22.07;43.18
40850;BME280;26571;41.610;25.380;2023-04-25T08:44:40;97414.00;;;22.10;43.45
40850;BME280;26571;41.610;25.380;2023-04-25T08:47:06;97418.56;;;22.04;44.25
40850;BME280;26571;41.610;25.380;2023-04-25T08:49:32;97414.16;;;21.78;45.27
40850;BME280;26571;41.610;25.380;2023-04-25T08:52:00;97407.78;;;21.89;44.92
40850;BME280;26571;41.610;25.380;2023-04-25T08:54:27;97411.31;;;22.00;44.45
40850;BME280;26571;41.610;25.380;2023-04-25T08:56:54;97403.19;;;21.74;44.99
40850;BME280;26571;41.610;25.380;2023-04-25T08:59:21;97392.69;;;21.62;45.69
40850;BME280;26571;41.610;25.380;2023-04-25T09:01:49;97403.75;;;21.81;44.62
40850;BME280;26571;41.610;25.380;2023-04-25T09:04:15;97401.63;;;21.26;45.54
40850;BME280;26571;41.610;25.380;2023-04-25T09:06:40;97401.88;;;20.82;46.49
40850;BME280;26571;41.610;25.380;2023-04-25T09:09:08;97394.66;;;20.82;45.17
40850;BME280;26571;41.610;25.380;2023-04-25T09:11:35;97397.00;;;20.42;46.94
40850;BME280;26571;41.610;25.380;2023-04-25T09:14:17;97389.53;;;20.44;47.54
40850;BME280;26571;41.610;25.380;2023-04-25T09:19:32;97357.91;;;20.30;48.85
40850;BME280;26571;41.610;25.380;2023-04-25T09:22:00;97358.94;;;20.56;48.87
40850;BME280;26571;41.610;25.380;2023-04-25T09:24:44;97377.28;;;20.80;48.90
40850;BME280;26571;41.610;25.380;2023-04-25T09:27:19;97363.22;;;20.57;48.48
40850;BME280;26571;41.610;25.380;2023-04-25T09:29:45;97367.97;;;20.23;49.72
40850;BME280;26571;41.610;25.380;2023-04-25T09:32:16;97364.28;;;20.24;50.29
40850;BME280;26571;41.610;25.380;2023-04-25T09:34:43;97349.63;;;20.32;51.01
40850;BME280;26571;41.610;25.380;2023-04-25T09:37:10;97357.72;;;20.42;50.13
40850;BME280;26571;41.610;25.380;2023-04-25T09:39:37;97368.69;;;20.40;52.10
40850;BME280;26571;41.610;25.380;2023-04-25T09:42:03;97345.31;;;19.99;52.55
40850;BME280;26571;41.610;25.380;2023-04-25T09:44:29;97366.41;;;19.95;52.11
40850;BME280;26571;41.610;25.380;2023-04-25T09:46:54;97375.50;;;19.72;52.23
40850;BME280;26571;41.610;25.380;2023-04-25T09:49:20;97386.63;;;19.64;53.04
40850;BME280;26571;41.610;25.380;2023-04-25T09:51:59;97371.25;;;19.49;53.42
40850;BME280;26571;41.610;25.380;2023-04-25T09:54:25;97380.47;;;19.20;59.66
40850;BME280;26571;41.610;25.380;2023-04-25T09:56:52;97383.56;;;19.11;61.00
40850;BME280;26571;41.610;25.380;2023-04-25T09:59:21;97385.81;;;19.20;61.48
40850;BME280;26571;41.610;25.380;2023-04-25T10:01:50;97397.72;;;19.12;60.95
40850;BME280;26571;41.610;25.380;2023-04-25T10:04:23;97388.06;;;18.55;57.32
40850;BME280;26571;41.610;25.380;2023-04-25T10:06:49;97359.00;;;18.20;58.62
40850;BME280;26571;41.610;25.380;2023-04-25T10:09:20;97371.53;;;17.91;55.94
40850;BME280;26571;41.610;25.380;2023-04-25T10:11:47;97388.50;;;17.73;53.88
40850;BME280;26571;41.610;25.380;2023-04-25T10:14:16;97410.28;;;17.58;53.81
40850;BME280;26571;41.610;25.380;2023-04-25T10:16:41;97418.84;;;17.61;54.53
40850;BME280;26571;41.610;25.380;2023-04-25T10:19:09;97405.66;;;17.54;56.82
40850;BME280;26571;41.610;25.380;2023-04-25T10:21:35;97416.19;;;17.61;57.57
40850;BME280;26571;41.610;25.380;2023-04-25T10:24:01;97415.63;;;17.47;57.78
40850;BME280;26571;41.610;25.380;2023-04-25T10:26:27;97403.44;;;17.22;58.57
40850;BME280;26571;41.610;25.380;2023-04-25T10:29:01;97410.69;;;17.15;59.97
40850;BME280;26571;41.610;25.380;2023-04-25T10:31:29;97399.50;;;17.13;59.57
40850;BME280;26571;41.610;25.380;2023-04-25T10:33:54;97396.88;;;17.01;61.02
40850;BME280;26571;41.610;25.380;2023-04-25T10:36:24;97400.22;;;16.97;61.41
40850;BME280;26571;41.610;25.380;2023-04-25T10:38:52;97396.72;;;17.08;61.08
40850;BME280;26571;41.610;25.380;2023-04-25T10:41:21;97410.81;;;17.20;61.18
40850;BME280;26571;41.610;25.380;2023-04-25T10:43:49;97391.25;;;17.38;60.82
40850;BME280;26571;41.610;25.380;2023-04-25T10:46:19;97397.91;;;17.52;60.69
40850;BME280;26571;41.610;25.380;2023-04-25T10:51:30;97392.88;;;17.79;61.92
40850;BME280;26571;41.610;25.380;2023-04-25T10:54:05;97386.81;;;18.13;63.29
40850;BME280;26571;41.610;25.380;2023-04-25T10:56:32;97378.91;;;18.34;62.29
40850;BME280;26571;41.610;25.380;2023-04-25T10:59:05;97375.53;;;18.56;61.77
40850;BME280;26571;41.610;25.380;2023-04-25T11:01:45;97378.94;;;18.85;60.58
40850;BME280;26571;41.610;25.380;2023-04-25T11:04:21;97379.78;;;19.07;59.49
40850;BME280;26571;41.610;25.380;2023-04-25T11:07:04;97383.69;;;19.22;60.01
40850;BME280;26571;41.610;25.380;2023-04-25T11:09:37;97381.28;;;19.42;60.87
40850;BME280;26571;41.610;25.380;2023-04-25T11:12:04;97377.13;;;19.51;61.62
40850;BME280;26571;41.610;25.380;2023-04-25T11:14:30;97369.97;;;19.57;61.31
40850;BME280;26571;41.610;25.380;2023-04-25T11:16:56;97373.84;;;19.66;65.68
40850;BME280;26571;41.610;25.380;2023-04-25T11:19:23;97376.25;;;19.68;66.92
40850;BME280;26571;41.610;25.380;2023-04-25T11:21:50;97364.50;;;19.69;69.38
40850;BME280;26571;41.610;25.380;2023-04-25T11:24:18;97363.47;;;19.70;68.78
40850;BME280;26571;41.610;25.380;2023-04-25T11:26:46;97356.44;;;19.63;68.26
40850;BME280;26571;41.610;25.380;2023-04-25T11:29:12;97364.84;;;19.50;67.05
40850;BME280;26571;41.610;25.380;2023-04-25T11:31:38;97360.34;;;19.34;67.00
40850;BME280;26571;41.610;25.380;2023-04-25T11:34:03;97369.94;;;19.30;66.16
40850;BME280;26571;41.610;25.380;2023-04-25T11:36:29;97386.91;;;19.24;63.41
40850;BME280;26571;41.610;25.380;2023-04-25T11:38:55;97372.63;;;18.91;63.75
40850;BME280;26571;41.610;25.380;2023-04-25T11:41:21;97378.38;;;18.66;63.17
40850;BME280;26571;41.610;25.380;2023-04-25T11:43:47;97361.22;;;18.28;65.43
40850;BME280;26571;41.610;25.380;2023-04-25T11:46:14;97357.13;;;18.21;70.19
40850;BME280;26571;41.610;25.380;2023-04-25T11:48:41;97356.91;;;17.94;71.74
40850;BME280;26571;41.610;25.380;2023-04-25T11:51:07;97350.31;;;17.68;73.10
40850;BME280;26571;41.610;25.380;2023-04-25T11:53:33;97360.47;;;17.42;75.37
40850;BME280;26571;41.610;25.380;2023-04-25T11:55:59;97359.91;;;17.28;76.20
40850;BME280;26571;41.610;25.380;2023-04-25T11:58:25;97367.44;;;17.20;78.07
40850;BME280;26571;41.610;25.380;2023-04-25T12:00:51;97356.84;;;17.08;81.21
40850;BME280;26571;41.610;25.380;2023-04-25T12:03:17;97363.00;;;16.85;84.02
40850;BME280;26571;41.610;25.380;2023-04-25T12:05:44;97360.44;;;16.67;87.50
40850;BME280;26571;41.610;25.380;2023-04-25T12:10:38;97324.81;;;16.09;94.39
40850;BME280;26571;41.610;25.380;2023-04-25T12:13:22;97318.00;;;16.01;95.32
40850;BME280;26571;41.610;25.380;2023-04-25T12:15:48;97286.09;;;15.78;96.65
40850;BME280;26571;41.610;25.380;2023-04-25T12:18:14;97339.25;;;16.01;98.06
40850;BME280;26571;41.610;25.380;2023-04-25T12:20:41;97330.19;;;15.91;99.05
40850;BME280;26571;41.610;25.380;2023-04-25T12:23:07;97358.66;;;16.14;100.00
40850;BME280;26571;41.610;25.380;2023-04-25T12:28:18;97347.44;;;15.70;100.00
40850;BME280;26571;41.610;25.380;2023-04-25T12:30:58;97351.94;;;15.51;100.00
40850;BME280;26571;41.610;25.380;2023-04-25T12:33:26;97349.22;;;15.58;100.00
40850;BME280;26571;41.610;25.380;2023-04-25T12:35:53;97344.00;;;15.69;100.00
40850;BME280;26571;41.610;25.380;2023-04-25T12:38:26;97335.03;;;15.82;100.00
40850;BME280;26571;41.610;25.380;2023-04-25T12:40:52;97326.28;;;15.93;100.00
40850;BME280;26571;41.610;25.380;2023-04-25T12:43:17;97348.16;;;16.07;100.00
40850;BME280;26571;41.610;25.380;2023-04-25T12:45:44;97330.13;;;16.21;100.00
40850;BME280;26571;41.610;25.380;2023-04-25T12:48:10;97324.00;;;16.09;100.00
40850;BME280;26571;41.610;25.380;2023-04-25T12:50:35;97290.00;;;15.64;100.00
40850;BME280;26571;41.610;25.380;2023-04-25T12:53:00;97304.47;;;15.31;100.00
40850;BME280;26571;41.610;25.380;2023-04-25T12:55:26;97288.44;;;15.26;100.00
40850;BME280;26571;41.610;25.380;2023-04-25T12:57:51;97283.59;;;15.23;100.00